• Join FlightAware (Why Join?)
  • Login
  • US Flag 
08:19AM EDT


 

Airport Tracker/Info


-or-


 

Live Flight TrackerFlight Track Log ✈ THY2471 ✈ 21-Jul-2014 ✈ LTAF / ADA - LTBA / IST

Flight Track Log - Related Links

Times and Time Zones

All times are in EDT time to prevent confusion due to time zone crossing. See the THY2471 flight status page for this flight to view local times or setup timezone preferences in your user account.

Time Position Orientation Groundspeed Altitude Reporting Facility
EDT Latitude Longitude Course Direction KTS MPH feet Rate Location/Type
03:56PM 37.4566 34.5777 311° West  Level Estimated
03:57PM 37.5156 34.4892 310° West  Level Estimated
03:58PM 37.5745 34.4006 310° West  Level Estimated
03:59PM 37.6334 34.3119 310° West  Level Estimated
04:00PM 37.6922 34.2230 310° West  Level Estimated
04:01PM 37.7510 34.1340 310° West  Level Estimated
04:02PM 37.8096 34.0448 310° West  Level Estimated
04:03PM 37.8683 33.9555 310° West  Level Estimated
04:04PM 37.9268 33.8660 310° West  Level Estimated
04:05PM 37.9853 33.7764 310° West  Level Estimated
04:06PM 38.0437 33.6867 310° West  Level Estimated
04:07PM 38.1020 33.5968 310° West  Level Estimated
04:08PM 38.1603 33.5068 309° West  Level Estimated
04:09PM 38.2185 33.4166 309° West  Level Estimated
04:10PM 38.2766 33.3263 309° West  Level Estimated
04:11PM 38.3347 33.2359 309° West  Level Estimated
04:12PM 38.3927 33.1453 309° West  Level Estimated
04:13PM 38.4506 33.0545 309° West  Level Estimated
04:14PM 38.5084 32.9636 309° West  Level Estimated
04:15PM 38.5662 32.8726 309° West  Level Estimated
04:16PM 38.6239 32.7814 309° West  Level Estimated
04:17PM 38.6816 32.6901 309° West  Level Estimated
04:18PM 38.7391 32.5986 309° West  Level Estimated
04:19PM 38.7966 32.5070 309° West  Level Estimated
04:20PM 38.8540 32.4152 309° West  Level Estimated
04:21PM 38.9114 32.3233 309° West  Level Estimated
04:22PM 38.9687 32.2312 309° West  Level Estimated
04:23PM 39.0259 32.1390 309° West  Level Estimated
04:24PM 39.0830 32.0466 309° West  Level Estimated
04:25PM 39.1401 31.9541 309° West  Level Estimated
04:26PM 39.1971 31.8614 308° West  Level Estimated
04:27PM 39.2540 31.7686 308° West  Level Estimated
04:28PM 39.3108 31.6757 308° West  Level Estimated
04:29PM 39.3676 31.5825 308° West  Level Estimated
04:30PM 39.4243 31.4893 308° West  Level Estimated
04:31PM 39.4809 31.3958 308° West  Level Estimated
04:32PM 39.5375 31.3023 308° West  Level Estimated
04:33PM 39.5939 31.2085 308° West  Level Estimated
04:34PM 39.6503 31.1147 308° West  Level Estimated
04:35PM 39.7066 31.0206 308° West  Level Estimated
04:36PM 39.7629 30.9264 308° West  Level Estimated
04:37PM 39.8190 30.8321 308° West  Level Estimated
04:38PM 39.8751 30.7376 308° West  Level Estimated
04:39PM 39.9311 30.6430 308° West  Level Estimated
04:40PM 39.9871 30.5481 308° West  Level Estimated
04:41PM 40.0429 30.4532 308° West  Level Estimated
04:42PM 40.0987 30.3581 307° West  Level Estimated
04:43PM 40.1544 30.2628 307° West  Level Estimated
04:44PM 40.2100 30.1674 307° West  Level Estimated
04:45PM 40.2656 30.0718 307° West  Level Estimated
04:46PM 40.3211 29.9760 307° West  Level Estimated
04:47PM 40.3764 29.8801 307° West  Level Estimated
04:48PM 40.4318 29.7841 307° West  Level Estimated
04:49PM 40.4870 29.6879 307° West  Level Estimated
04:50PM 40.5421 29.5915 307° West  Level Estimated
04:51PM 40.5972 29.4950 307° West  Level Estimated
04:52PM 40.6522 29.3983 307° West  Level Estimated
04:53PM 40.7071 29.3014 307° West  Level Estimated
04:54PM 40.7619 29.2044 307° West  Level Estimated
04:55PM 40.8167 29.1073 307° West  Level Estimated
04:56PM 40.8713 29.0099 307° West  Level Estimated
04:57PM 40.9259 28.9124 307° West  Level Estimated
04:58PM 40.9769 28.8211 306° West  Level Estimated
04:59PM 40.9769 28.8211 North  Level Estimated
05:00PM 40.9769 28.8211 North  Level Estimated
05:01PM 40.9769 28.8211 North  Level Estimated
05:02PM 40.9769 28.8211 North  Level Estimated
05:03PM 40.9769 28.8211 North  Level Estimated
05:04PM 40.9769 28.8211 North  Level Estimated
05:05PM 40.9769 28.8211 North  Level Estimated
05:06PM 40.9769 28.8211 North  Level Estimated
05:07PM 40.9769 28.8211 North  Level Estimated
05:08PM 40.9769 28.8211 North  Level Estimated
05:09PM 40.9769 28.8211 North  Level Estimated
05:10PM 40.9769 28.8211 North  Level Estimated
05:11PM 40.9769 28.8211 North  Level Estimated